NCAR-RAP Real-Time Weather Data

Output produced by METARs form (17 September 2019  16:57 UTC)
found at http://weather.rap.ucar.edu/surface/
 
KGRI 171653Z 19018G28KT 10SM CLR 31/18 A2991 RMK AO2 PK WND 19030/1638 SLP111 T03060183
KGRI 171553Z 19017G31KT 10SM CLR 29/18 A2992 RMK AO2 PK WND 17031/1545 SLP117 T02890178
KGRI 171453Z 18015G24KT 10SM CLR 27/18 A2992 RMK AO2 PK WND 18027/1429 SLP120 T02670183 58003
KGRI 171353Z 18015KT 10SM CLR 24/18 A2993 RMK AO2 SLP123 T02440183
KGRI 171253Z 17013KT 10SM CLR 23/19 A2994 RMK AO2 SLP126 T02280189
KGRI 171153Z AUTO 17013KT 10SM CLR 23/19 A2993 RMK AO2 SLP123 T02280189 10256 20228 53002
KGRI 171053Z AUTO 17012G20KT 10SM CLR 23/19 A2992 RMK AO2 SLP118 T02280189
KGRI 170953Z AUTO 17014KT 10SM CLR 23/19 A2992 RMK AO2 SLP118 T02330189
KGRI 170853Z AUTO 18014G22KT 10SM CLR 24/19 A2993 RMK AO2 SLP117 T02390189 58001
KGRI 170753Z AUTO 18014G23KT 10SM CLR 24/19 A2993 RMK AO2 PK WND 17026/0706 SLP120 T02390189
KGRI 170653Z AUTO 17015G24KT 10SM CLR 25/18 A2993 RMK AO2 SLP120 T02500183
KGRI 170553Z AUTO 17016G26KT 10SM CLR 26/18 A2993 RMK AO2 PK WND 16027/0513 SLP118 T02560183 10294 20244 403280217 51000
KGRI 170453Z AUTO 17015G24KT 10SM CLR 26/18 A2993 RMK AO2 SLP119 T02560183
KGRI 170353Z AUTO 16014G23KT 10SM CLR 24/18 A2993 RMK AO2 SLP122 T02440178
KGRI 170253Z AUTO 14010G19KT 10SM CLR 25/18 A2993 RMK AO2 SLP122 T02500178 53007
KGRI 170053Z 15010KT 10SM CLR 27/18 A2991 RMK AO2 SLP116 T02670178
KGRI 162353Z 15010KT 10SM CLR 29/17 A2991 RMK AO2 SLP113 T02940172 10328 20294 56009
KGRI 162253Z 16012KT 10SM CLR 30/18 A2991 RMK AO2 PK WND 17026/2211 SLP114 T03000178
KGRI 162153Z 15012KT 10SM CLR 31/18 A2992 RMK AO2 PK WND 17026/2106 SLP116 T03110183
KGRI 162053Z 18015G22KT 10SM CLR 32/17 A2993 RMK AO2 SLP121 T03220172 56015